Time;durP1;ratioP1;P1;durP2;ratioP2;P2;SDS_P1;SDS_P2;PMS_P1;PMS_P2;Temp;Humidity;BMP_temperature;BMP_pressure;BME280_temperature;BME280_humidity;BME280_pressure;Samples;Min_cycle;Max_cycle;Signal;HPM_P1;HPM_P2
2022/04/04 00:00:04;;;;;;;6.25;3.05;;;;;;;-1.80;50.37;98061.06;5087578;28;20059;-61
2022/04/04 00:02:31;;;;;;;8.98;3.47;;;;;;;-1.83;50.12;98058.94;5090759;28;20093;-61
2022/04/04 00:04:58;;;;;;;6.78;2.78;;;;;;;-1.83;50.47;98064.38;5090740;28;20052;-61
2022/04/04 00:07:25;;;;;;;7.00;3.33;;;;;;;-1.84;50.49;98062.75;5091869;28;20098;-61
2022/04/04 00:09:53;;;;;;;6.82;2.92;;;;;;;-1.82;50.16;98066.81;5091987;28;20097;-61
2022/04/04 00:12:20;;;;;;;6.47;3.50;;;;;;;-1.79;50.46;98065.41;5091872;28;20139;-60
2022/04/04 00:14:48;;;;;;;7.90;3.35;;;;;;;-1.78;50.07;98070.56;5091608;28;20040;-61
2022/04/04 00:17:15;;;;;;;14.30;3.30;;;;;;;-1.79;50.33;98060.78;5091890;28;20105;-61
2022/04/04 00:19:42;;;;;;;10.35;3.15;;;;;;;-1.80;50.10;98066.53;5091769;28;20036;-62
2022/04/04 00:22:09;;;;;;;10.80;3.22;;;;;;;-1.86;50.44;98069.28;5083757;28;20513;-61
2022/04/04 00:24:37;;;;;;;7.95;3.30;;;;;;;-1.89;50.26;98072.59;5091338;28;20060;-60
2022/04/04 00:27:04;;;;;;;7.20;3.63;;;;;;;-1.91;50.39;98074.81;5091958;28;20048;-61
2022/04/04 00:29:31;;;;;;;7.75;3.20;;;;;;;-1.94;50.36;98075.41;5091255;28;20048;-60
2022/04/04 00:31:58;;;;;;;10.32;3.13;;;;;;;-1.95;50.68;98073.75;5091628;28;20044;-60
2022/04/04 00:34:26;;;;;;;10.02;3.58;;;;;;;-1.95;50.52;98071.03;5091662;28;20060;-60
2022/04/04 00:36:53;;;;;;;7.10;2.75;;;;;;;-1.96;50.68;98072.13;5091399;28;20048;-61
2022/04/04 00:39:20;;;;;;;9.20;3.42;;;;;;;-2.01;50.05;98064.00;5091629;28;20083;-61
2022/04/04 00:41:47;;;;;;;11.15;4.32;;;;;;;-2.01;50.38;98074.91;5088185;28;20052;-62
2022/04/04 00:44:15;;;;;;;8.32;3.63;;;;;;;-2.03;50.58;98071.69;5091659;28;20044;-61
2022/04/04 00:46:43;;;;;;;30.02;7.82;;;;;;;-2.06;50.94;98071.44;5089854;28;20044;-61
2022/04/04 00:49:10;;;;;;;5.80;3.40;;;;;;;-2.10;50.79;98075.84;5085637;28;20048;-60
2022/04/04 00:51:38;;;;;;;9.25;3.45;;;;;;;-2.13;50.91;98074.47;5090602;28;20097;-61
2022/04/04 00:54:07;;;;;;;5.47;3.38;;;;;;;-2.11;50.76;98082.34;5092017;28;20044;-63
2022/04/04 00:56:36;;;;;;;7.25;3.58;;;;;;;-2.07;51.16;98076.06;5091114;28;20139;-63
2022/04/04 00:59:05;;;;;;;5.85;3.63;;;;;;;-2.06;51.23;98083.16;5091770;28;20051;-63
2022/04/04 01:01:32;;;;;;;11.25;4.05;;;;;;;-2.04;50.92;98086.38;5091404;28;20173;-63
2022/04/04 01:04:01;;;;;;;11.68;3.50;;;;;;;-2.05;50.87;98084.75;5091885;28;20048;-63
2022/04/04 01:06:28;;;;;;;7.53;2.95;;;;;;;-2.07;50.86;98080.72;5092849;28;20054;-62
2022/04/04 01:08:55;;;;;;;7.00;3.15;;;;;;;-2.10;51.22;98087.53;5095574;28;20530;-63
2022/04/04 01:11:22;;;;;;;8.52;3.33;;;;;;;-2.08;51.11;98084.50;5095014;28;20044;-63
2022/04/04 01:13:50;;;;;;;5.80;3.08;;;;;;;-2.09;50.88;98091.88;5095520;28;20052;-63
2022/04/04 01:16:17;;;;;;;8.68;3.67;;;;;;;-2.14;51.32;98088.38;5094716;28;20040;-63
2022/04/04 01:18:44;;;;;;;8.52;3.47;;;;;;;-2.19;51.56;98105.59;5095350;28;20052;-62
2022/04/04 01:21:11;;;;;;;7.03;3.40;;;;;;;-2.19;51.70;98096.63;5092939;28;20051;-63
2022/04/04 01:23:42;;;;;;;9.85;2.92;;;;;;;-2.20;51.56;98093.06;5091282;28;20105;-63
2022/04/04 01:26:11;;;;;;;7.63;3.55;;;;;;;-2.19;51.15;98093.91;5094674;28;20438;-63
2022/04/04 01:28:40;;;;;;;6.68;3.75;;;;;;;-2.19;51.22;98100.13;5091198;28;20117;-63
2022/04/04 01:31:07;;;;;;;6.40;3.65;;;;;;;-2.20;51.36;98092.25;5094717;28;20055;-63
2022/04/04 01:33:35;;;;;;;6.25;3.50;;;;;;;-2.22;51.28;98097.97;5094697;28;20071;-64
2022/04/04 01:36:02;;;;;;;5.90;2.97;;;;;;;-2.24;51.22;98102.09;5094853;28;20036;-63
2022/04/04 01:38:29;;;;;;;11.63;3.00;;;;;;;-2.25;51.31;98084.94;5094308;28;20079;-62
2022/04/04 01:40:56;;;;;;;6.97;3.55;;;;;;;-2.22;51.01;98105.34;5095091;28;20475;-63
2022/04/04 01:43:23;;;;;;;6.00;3.38;;;;;;;-2.23;51.30;98093.66;5093169;28;20044;-62
2022/04/04 01:48:37;;;;;;;7.25;2.90;;;;;;;-2.29;51.16;98102.97;5094548;28;20101;-62
2022/04/04 01:51:05;;;;;;;5.82;3.25;;;;;;;-2.27;51.25;98105.41;5094889;28;20052;-63
2022/04/04 01:53:32;;;;;;;7.10;3.42;;;;;;;-2.27;51.11;98108.94;5094817;28;20078;-62
2022/04/04 01:56:03;;;;;;;8.88;4.18;;;;;;;-2.31;51.20;98105.13;5094654;28;20048;-63
2022/04/04 01:58:32;;;;;;;6.35;3.30;;;;;;;-2.29;51.25;98113.84;5091558;28;20043;-62
2022/04/04 02:01:01;;;;;;;6.03;3.25;;;;;;;-2.32;51.36;98111.69;5094608;28;20044;-63
2022/04/04 02:03:31;;;;;;;5.57;2.65;;;;;;;-2.31;51.43;98121.47;5094016;28;20040;-62
2022/04/04 02:06:00;;;;;;;12.82;3.65;;;;;;;-2.28;51.54;98120.91;5094570;28;20051;-62
2022/04/04 02:08:27;;;;;;;10.05;3.30;;;;;;;-2.29;51.59;98116.56;5093572;28;20155;-63
2022/04/04 02:10:55;;;;;;;9.80;3.58;;;;;;;-2.25;51.15;98120.34;5094569;28;20507;-64
2022/04/04 02:13:25;;;;;;;9.18;3.40;;;;;;;-2.24;51.49;98119.25;5093636;28;20048;-63
2022/04/04 02:15:53;;;;;;;;;;;;;;;-2.32;51.30;98133.47;5094529;28;20087;-60
2022/04/04 02:18:20;;;;;;;6.10;2.92;;;;;;;-2.33;51.81;98126.41;5093256;28;20067;-61
2022/04/04 02:20:47;;;;;;;9.90;3.25;;;;;;;-2.34;51.54;98135.66;5094539;28;20063;-61
2022/04/04 02:23:18;;;;;;;6.28;3.53;;;;;;;-2.35;51.58;98119.59;5083954;28;20109;-61
2022/04/04 02:25:50;;;;;;;6.22;3.28;;;;;;;-2.37;51.11;98119.91;5094166;28;20478;-61
2022/04/04 02:28:17;;;;;;;5.72;3.25;;;;;;;-2.40;51.85;98123.19;5093305;28;20059;-60
2022/04/04 02:30:46;;;;;;;8.20;3.70;;;;;;;-2.40;51.79;98130.56;5094023;28;20097;-60
2022/04/04 02:33:13;;;;;;;8.80;3.75;;;;;;;-2.44;51.81;98130.31;5093150;28;20159;-60
2022/04/04 02:35:40;;;;;;;8.95;3.70;;;;;;;-2.46;51.71;98134.41;5093902;28;20105;-61
2022/04/04 02:38:08;;;;;;;14.38;3.85;;;;;;;-2.50;52.14;98131.44;5093706;28;20140;-60
2022/04/04 02:40:35;;;;;;;10.50;3.88;;;;;;;-2.52;52.27;98139.06;5092247;28;20047;-61
2022/04/04 02:43:04;;;;;;;5.25;3.20;;;;;;;-2.54;51.96;98140.44;5093322;28;20048;-61
2022/04/04 02:45:32;;;;;;;7.00;3.58;;;;;;;-2.56;52.20;98143.47;5093891;28;20051;-61
2022/04/04 02:47:59;;;;;;;6.47;3.88;;;;;;;-2.55;52.07;98149.72;5091744;28;20064;-60
2022/04/04 02:50:27;;;;;;;8.13;3.50;;;;;;;-2.55;52.25;98149.72;5093482;28;20059;-61
2022/04/04 02:52:54;;;;;;;6.68;3.40;;;;;;;-2.59;52.46;98154.91;5091920;28;20424;-61
2022/04/04 02:58:06;;;;;;;11.10;3.60;;;;;;;-2.68;52.31;98163.94;5093025;28;20108;-61
2022/04/04 03:00:34;;;;;;;8.00;3.83;;;;;;;-2.70;52.50;98164.22;5083311;28;20044;-61
2022/04/04 03:03:01;;;;;;;10.38;3.30;;;;;;;-2.71;52.55;98170.75;5092879;28;20075;-61
2022/04/04 03:05:28;;;;;;;7.43;3.80;;;;;;;-2.73;53.26;98174.84;5093111;28;20051;-61
2022/04/04 03:07:55;;;;;;;6.22;3.85;;;;;;;-2.74;52.55;98174.06;5092905;28;20588;-61
2022/04/04 03:10:22;;;;;;;6.93;3.70;;;;;;;-2.73;52.49;98181.09;5091552;28;20138;-60
2022/04/04 03:12:54;;;;;;;8.82;3.63;;;;;;;-2.73;52.31;98181.09;5092914;28;20506;-60
2022/04/04 03:15:24;;;;;;;7.93;3.83;;;;;;;-2.71;52.58;98189.81;5092661;28;20069;-62
2022/04/04 03:17:53;;;;;;;8.15;3.80;;;;;;;-2.70;52.40;98188.72;5092865;28;20036;-61
2022/04/04 03:20:23;;;;;;;8.10;3.58;;;;;;;-2.68;52.84;98194.69;5092647;28;20044;-63
2022/04/04 03:22:55;;;;;;;7.60;4.07;;;;;;;-2.66;52.23;98192.50;5093086;28;20458;-63
2022/04/04 03:25:23;;;;;;;9.13;4.10;;;;;;;-2.64;52.34;98200.38;5092621;28;20498;-63
2022/04/04 03:27:51;;;;;;;8.38;3.00;;;;;;;-2.65;52.33;98194.13;5091017;28;20517;-63
2022/04/04 03:30:24;;;;;;;10.23;3.78;;;;;;;-2.66;52.33;98197.94;5092104;28;20062;-63
2022/04/04 03:32:52;;;;;;;6.28;3.60;;;;;;;-2.68;52.71;98193.88;5092863;28;20044;-63
2022/04/04 03:35:19;;;;;;;9.40;3.80;;;;;;;-2.65;52.29;98193.31;5092561;28;20143;-63
2022/04/04 03:37:49;;;;;;;14.13;3.80;;;;;;;-2.62;52.40;98198.19;5092643;28;20085;-64
2022/04/04 03:40:19;;;;;;;31.88;20.20;;;;;;;-2.61;52.54;98189.75;5092241;28;20526;-64
2022/04/04 03:42:49;;;;;;;5.90;3.73;;;;;;;-2.59;51.91;98201.19;5088809;28;20039;-63
2022/04/04 03:45:17;;;;;;;6.15;3.63;;;;;;;-2.55;52.57;98196.00;5091940;28;21265;-63
2022/04/04 03:47:44;;;;;;;9.15;3.47;;;;;;;-2.51;52.32;98205.22;5092177;28;20074;-64
2022/04/04 03:50:14;;;;;;;8.18;3.92;;;;;;;-2.44;51.71;98206.53;5092107;28;20048;-63
2022/04/04 03:52:42;;;;;;;7.80;4.18;;;;;;;-2.40;52.02;98201.34;5089497;28;20052;-63
2022/04/04 03:55:11;;;;;;;9.85;4.15;;;;;;;-2.38;51.23;98201.84;5091777;28;20055;-64
2022/04/04 03:57:40;;;;;;;13.70;5.00;;;;;;;-2.32;51.46;98215.16;5087817;28;20054;-64
2022/04/04 04:00:08;;;;;;;17.35;6.05;;;;;;;-2.27;51.14;98208.88;5088787;28;20081;-63
2022/04/04 04:02:37;;;;;;;20.85;7.38;;;;;;;-2.21;51.12;98199.56;5092235;28;20478;-64
2022/04/04 04:05:11;;;;;;;10.75;5.22;;;;;;;-2.12;50.73;98211.50;5091635;28;20140;-63
2022/04/04 04:07:38;;;;;;;9.85;5.15;;;;;;;-2.03;51.03;98201.63;5091988;28;20217;-64
2022/04/04 04:10:05;;;;;;;14.98;3.85;;;;;;;-1.97;50.80;98212.19;5091921;28;20051;-64
2022/04/04 04:12:32;;;;;;;8.48;4.15;;;;;;;-1.94;50.29;98211.63;5091994;28;20068;-61
2022/04/04 04:15:00;;;;;;;7.80;3.83;;;;;;;-1.94;50.34;98211.63;5092082;28;20089;-61
2022/04/04 04:17:27;;;;;;;7.05;3.75;;;;;;;-1.93;50.36;98218.69;5091833;28;20052;-61
2022/04/04 04:22:39;;;;;;;7.38;3.95;;;;;;;-1.79;49.91;98213.41;5089780;28;20467;-60
2022/04/04 04:25:07;;;;;;;12.00;3.65;;;;;;;-1.77;49.66;98215.84;5091425;28;20048;-61
2022/04/04 04:27:35;;;;;;;9.77;3.80;;;;;;;-1.67;49.54;98226.66;5091704;28;20082;-61
2022/04/04 04:30:03;;;;;;;11.55;4.50;;;;;;;-1.61;49.40;98218.16;5083151;28;20059;-61
2022/04/04 04:32:30;;;;;;;11.48;4.22;;;;;;;-1.59;49.12;98217.84;5088099;28;20102;-61
2022/04/04 04:34:57;;;;;;;9.32;4.45;;;;;;;-1.55;49.31;98224.34;5091764;28;20134;-61
2022/04/04 04:37:25;;;;;;;10.57;3.92;;;;;;;-1.52;49.26;98224.59;5091702;28;20407;-61
2022/04/04 04:39:53;;;;;;;7.45;4.63;;;;;;;-1.46;49.04;98214.44;5093301;28;20052;-62
2022/04/04 04:42:20;;;;;;;8.55;4.30;;;;;;;-1.34;48.59;98218.44;5095661;28;20043;-62
2022/04/04 04:44:47;;;;;;;6.22;3.63;;;;;;;-1.21;48.42;98219.66;5095869;28;20147;-61
2022/04/04 04:47:16;;;;;;;7.57;4.13;;;;;;;-1.04;48.22;98222.75;5095506;28;20044;-62
2022/04/04 04:49:43;;;;;;;9.45;4.13;;;;;;;-0.87;47.97;98221.19;5096011;28;20048;-61
2022/04/04 04:52:11;;;;;;;8.63;3.95;;;;;;;-0.73;47.49;98224.00;5091157;28;20051;-61
2022/04/04 04:54:38;;;;;;;9.40;3.78;;;;;;;-0.55;47.40;98225.97;5095482;28;20060;-62
2022/04/04 04:57:05;;;;;;;6.68;3.90;;;;;;;-0.47;47.35;98225.31;5095221;28;20097;-62
2022/04/04 04:59:32;;;;;;;8.38;3.35;;;;;;;-0.36;47.13;98229.53;5095570;28;20123;-61
2022/04/04 05:02:00;;;;;;;9.25;4.30;;;;;;;-0.35;47.00;98231.16;5094468;28;20058;-62
2022/04/04 05:04:27;;;;;;;9.52;4.97;;;;;;;-0.33;46.77;98223.47;5095649;28;20364;-62
2022/04/04 05:06:54;;;;;;;14.57;4.25;;;;;;;-0.17;46.84;98235.81;5094554;28;20109;-61
2022/04/04 05:09:21;;;;;;;8.60;3.95;;;;;;;-0.12;46.68;98233.81;5095606;28;20047;-61
2022/04/04 05:11:48;;;;;;;8.20;4.10;;;;;;;-0.12;46.61;98231.09;5095106;28;20151;-63
2022/04/04 05:14:15;;;;;;;7.22;4.03;;;;;;;-0.11;46.33;98234.66;5095508;28;20104;-62
2022/04/04 05:16:46;;;;;;;15.63;4.93;;;;;;;-0.13;45.99;98232.22;5095042;28;20036;-62
2022/04/04 05:19:19;;;;;;;6.70;4.03;;;;;;;-0.09;46.18;98238.69;5094315;28;20108;-62
2022/04/04 05:21:46;;;;;;;10.57;3.80;;;;;;;-0.05;46.14;98236.19;5095060;28;20048;-62
2022/04/04 05:24:13;;;;;;;11.27;4.10;;;;;;;0.02;45.65;98236.63;5095096;28;20055;-62
2022/04/04 05:26:41;;;;;;;9.63;4.93;;;;;;;0.24;45.63;98230.56;5095201;28;20142;-62
2022/04/04 05:29:08;;;;;;;7.72;3.90;;;;;;;0.66;44.79;98233.94;5094548;28;20078;-62
2022/04/04 05:31:36;;;;;;;8.93;4.40;;;;;;;0.99;44.21;98221.00;5087749;28;20094;-62
2022/04/04 05:34:07;;;;;;;14.93;3.97;;;;;;;1.80;42.81;98221.75;5093500;28;20503;-62
2022/04/04 05:36:35;;;;;;;6.72;3.58;;;;;;;3.19;40.90;98231.44;5094758;28;20555;-62
2022/04/04 05:39:03;;;;;;;11.50;3.92;;;;;;;4.62;38.00;98222.94;5094483;28;20419;-62
2022/04/04 05:41:30;;;;;;;7.63;4.03;;;;;;;5.17;37.79;98210.81;5094568;28;20134;-61
2022/04/04 05:43:58;;;;;;;8.38;3.88;;;;;;;5.26;37.79;98213.53;5094718;28;20079;-61
2022/04/04 05:46:25;;;;;;;12.98;4.28;;;;;;;5.44;37.57;98226.91;5094762;28;20068;-62
2022/04/04 05:48:52;;;;;;;8.55;4.00;;;;;;;5.95;37.19;98214.03;5093955;28;20056;-61
2022/04/04 05:51:19;;;;;;;14.35;4.20;;;;;;;6.08;36.62;98219.28;5084362;28;20040;-62
2022/04/04 05:53:46;;;;;;;10.45;4.13;;;;;;;6.31;36.46;98225.28;5090520;28;20082;-60
2022/04/04 05:56:13;;;;;;;12.05;5.00;;;;;;;7.08;34.86;98225.38;5090490;28;20044;-62
2022/04/04 05:58:41;;;;;;;6.93;4.13;;;;;;;7.73;34.19;98225.25;5087385;28;20043;-62
2022/04/04 06:01:08;;;;;;;8.68;3.97;;;;;;;7.75;34.00;98219.34;5093738;28;20048;-62
2022/04/04 06:03:35;;;;;;;9.23;3.72;;;;;;;7.44;34.04;98222.69;5093289;28;20458;-64
2022/04/04 06:06:03;;;;;;;9.55;4.45;;;;;;;7.74;32.94;98220.50;5092955;28;20079;-64
2022/04/04 06:08:30;;;;;;;7.88;4.20;;;;;;;8.87;31.24;98215.31;5090330;28;20117;-63
2022/04/04 06:10:57;;;;;;;9.30;4.18;;;;;;;10.32;29.04;98217.03;5086988;28;20507;-63
2022/04/04 06:13:25;;;;;;;13.98;4.55;;;;;;;10.25;29.32;98219.66;5088175;28;20048;-71
2022/04/04 06:15:53;;;;;;;7.45;3.78;;;;;;;10.20;29.72;98223.53;5074330;28;20043;-63
2022/04/04 06:18:20;;;;;;;7.32;4.25;;;;;;;11.34;28.50;98219.94;5093255;28;20139;-64
2022/04/04 06:20:47;;;;;;;6.78;3.97;;;;;;;12.08;27.24;98224.03;5092585;28;20054;-64
2022/04/04 06:23:14;;;;;;;7.95;4.10;;;;;;;11.88;27.35;98228.91;5093513;28;20191;-64
2022/04/04 06:25:41;;;;;;;9.23;3.67;;;;;;;12.27;26.45;98227.53;5093496;28;20052;-64
2022/04/04 06:28:09;;;;;;;10.43;3.72;;;;;;;12.07;26.52;98223.22;5087600;28;20044;-66
2022/04/04 06:30:36;;;;;;;10.27;3.85;;;;;;;11.32;27.07;98218.69;5092703;28;20051;-64
2022/04/04 06:33:04;;;;;;;5.78;3.60;;;;;;;11.31;26.82;98222.66;5093531;28;20054;-64
2022/04/04 06:35:32;;;;;;;8.82;3.92;;;;;;;12.61;26.00;98229.22;5093340;28;20048;-63
2022/04/04 06:38:02;;;;;;;8.57;4.22;;;;;;;14.40;23.38;98227.53;5092124;28;20093;-63
2022/04/04 06:40:32;;;;;;;50.70;18.42;;;;;;;15.24;23.10;98224.34;5093435;28;20052;-63
2022/04/04 06:42:59;;;;;;;;;;;;;;;14.76;23.18;98228.53;5089463;28;20233;-63
2022/04/04 06:45:27;;;;;;;8.90;4.47;;;;;;;14.52;23.09;98227.19;5089767;28;19981;-63
2022/04/04 06:47:54;;;;;;;9.65;4.75;;;;;;;13.92;24.24;98240.69;5092868;28;20109;-64
2022/04/04 06:50:21;;;;;;;6.35;3.95;;;;;;;13.12;24.40;98229.50;5093104;28;20153;-63
2022/04/04 06:52:48;;;;;;;6.63;4.32;;;;;;;12.17;25.58;98242.09;5091863;28;20047;-63
2022/04/04 06:55:36;;;;;;;7.95;3.72;;;;;;;11.24;25.74;98233.66;5091662;28;20044;-63
2022/04/04 06:58:03;;;;;;;11.52;3.97;;;;;;;10.80;26.45;98236.75;5092176;28;20139;-63
2022/04/04 07:00:30;;;;;;;8.48;4.43;;;;;;;10.85;25.94;98232.88;5091747;28;20052;-64
2022/04/04 07:02:58;;;;;;;18.40;6.47;;;;;;;10.95;26.19;98237.84;5086263;28;20052;-63
2022/04/04 07:05:25;;;;;;;10.35;4.70;;;;;;;10.70;25.80;98239.31;5085065;28;20052;-64
2022/04/04 07:07:53;;;;;;;10.93;4.82;;;;;;;11.15;26.09;98231.09;5085349;28;20144;-63
2022/04/04 07:10:21;;;;;;;14.07;4.70;;;;;;;11.38;25.47;98229.16;5091772;28;20101;-63
2022/04/04 07:12:49;;;;;;;8.20;4.05;;;;;;;11.61;25.32;98232.78;5089278;28;20062;-63
2022/04/04 07:15:15;;;;;;;9.75;4.40;;;;;;;11.88;25.12;98226.13;5084280;28;20514;-64
2022/04/04 07:17:43;;;;;;;10.88;4.50;;;;;;;11.60;25.11;98224.78;5087747;28;20144;-65
2022/04/04 07:20:11;;;;;;;10.32;4.03;;;;;;;11.52;24.92;98229.41;5090546;28;20541;-64
2022/04/04 07:22:41;;;;;;;15.27;4.95;;;;;;;12.59;24.01;98228.00;5087178;28;20533;-63
2022/04/04 07:25:10;;;;;;;10.70;5.03;;;;;;;13.74;22.63;98222.97;5091561;28;20134;-63
2022/04/04 07:27:43;;;;;;;10.73;3.55;;;;;;;13.71;22.12;98223.72;5091608;28;20495;-63
2022/04/04 07:30:11;;;;;;;9.13;4.53;;;;;;;13.30;22.60;98221.31;5084230;28;20395;-63
2022/04/04 07:32:38;;;;;;;8.65;3.80;;;;;;;13.93;22.01;98224.72;5088535;28;20058;-63
2022/04/04 07:35:11;;;;;;;7.20;3.60;;;;;;;14.50;21.75;98216.41;5092793;28;20051;-64
2022/04/04 07:37:39;;;;;;;10.70;3.60;;;;;;;15.15;20.94;98212.69;5092017;28;20081;-63
2022/04/04 07:40:10;;;;;;;7.78;2.92;;;;;;;15.17;20.41;98216.72;5092801;28;20502;-64
2022/04/04 07:42:39;;;;;;;8.40;3.92;;;;;;;15.80;20.02;98216.91;5091615;28;20056;-63
2022/04/04 07:45:07;;;;;;;12.30;3.42;;;;;;;16.46;19.69;98212.47;5092693;28;20507;-64
2022/04/04 07:47:35;;;;;;;5.05;3.05;;;;;;;17.15;18.96;98212.69;5085441;28;20040;-65
2022/04/04 07:50:04;;;;;;;6.35;3.33;;;;;;;16.84;18.72;98213.63;5091645;28;20040;-64
2022/04/04 07:52:31;;;;;;;6.13;3.17;;;;;;;16.48;19.00;98212.88;5086592;28;20071;-62
2022/04/04 07:54:58;;;;;;;7.82;3.40;;;;;;;16.25;19.39;98202.06;5088642;28;20519;-63
2022/04/04 07:57:25;;;;;;;12.07;3.72;;;;;;;16.29;19.47;98207.69;5086939;28;20554;-64
2022/04/04 07:59:52;;;;;;;5.75;2.58;;;;;;;16.38;19.10;98203.25;5090767;28;20135;-64
2022/04/04 08:02:20;;;;;;;4.43;2.67;;;;;;;17.06;18.57;98204.72;5090573;28;20419;-64
2022/04/04 08:04:47;;;;;;;5.78;2.80;;;;;;;17.84;17.48;98205.09;5086016;28;20481;-64
2022/04/04 08:07:15;;;;;;;9.55;2.85;;;;;;;18.20;17.06;98200.78;5090676;28;20074;-63
2022/04/04 08:09:42;;;;;;;4.82;2.38;;;;;;;19.18;16.41;98205.38;5089632;28;20090;-63
2022/04/04 08:12:09;;;;;;;5.53;2.85;;;;;;;19.25;16.06;98207.31;5088752;28;20043;-62
2022/04/04 08:14:37;;;;;;;4.97;2.58;;;;;;;19.75;15.78;98200.59;5084544;28;20154;-63
2022/04/04 08:17:05;;;;;;;3.58;2.40;;;;;;;21.57;14.75;98201.28;5091638;28;20051;-63
2022/04/04 08:19:32;;;;;;;5.50;2.30;;;;;;;23.48;13.58;98195.16;5089207;28;20138;-62
2022/04/04 08:22:00;;;;;;;3.80;2.30;;;;;;;24.35;12.31;98197.25;5090034;28;20051;-63
2022/04/04 08:24:26;;;;;;;3.60;2.45;;;;;;;24.41;12.63;98195.44;5090956;28;20161;-63
2022/04/04 08:26:54;;;;;;;5.47;2.58;;;;;;;25.45;12.34;98187.25;5086571;28;20051;-63
2022/04/04 08:29:21;;;;;;;5.18;3.03;;;;;;;25.98;11.64;98185.97;5088134;28;20032;-63
2022/04/04 08:31:48;;;;;;;8.23;2.75;;;;;;;26.20;11.79;98192.41;5086101;28;20044;-63
2022/04/04 08:34:15;;;;;;;3.97;2.42;;;;;;;25.75;11.43;98188.53;5091486;28;20466;-62
2022/04/04 08:36:42;;;;;;;3.35;2.00;;;;;;;25.64;11.71;98186.06;5091535;28;20070;-63
2022/04/04 08:39:09;;;;;;;25.95;11.88;;;;;;;25.83;11.86;98190.63;5091414;28;20082;-62
2022/04/04 08:41:37;;;;;;;5.93;2.38;;;;;;;26.38;11.75;98186.75;5088892;28;20045;-63
2022/04/04 08:44:05;;;;;;;6.07;2.42;;;;;;;26.59;11.70;98180.16;5087461;28;20052;-62
2022/04/04 08:46:35;;;;;;;4.53;2.40;;;;;;;25.97;11.20;98190.06;5084100;28;20051;-62
2022/04/04 08:49:04;;;;;;;5.72;2.80;;;;;;;26.54;10.90;98186.50;5091459;28;20040;-62
2022/04/04 08:51:31;;;;;;;6.30;2.70;;;;;;;27.13;10.59;98182.28;5091408;28;20052;-62
2022/04/04 08:53:59;;;;;;;4.28;2.67;;;;;;;27.58;10.13;98181.47;5091964;28;20059;-63
2022/04/04 08:56:27;;;;;;;5.07;2.90;;;;;;;28.15;9.82;98178.28;5091482;28;20044;-63
2022/04/04 08:58:56;;;;;;;67.47;29.25;;;;;;;28.77;9.42;98181.31;5091837;28;20498;-63
2022/04/04 09:01:25;;;;;;;7.65;3.50;;;;;;;28.94;9.56;98185.31;5091637;28;20083;-63
2022/04/04 09:04:01;;;;;;;;;;;;;;;28.32;9.91;98168.06;5092202;28;20502;-62
2022/04/04 09:06:28;;;;;;;4.88;2.88;;;;;;;28.38;9.30;98179.59;5090941;28;19949;-63
2022/04/04 09:08:56;;;;;;;4.72;3.10;;;;;;;28.82;9.58;98166.34;5091856;28;20109;-63
2022/04/04 09:11:24;;;;;;;7.28;3.00;;;;;;;29.13;9.35;98168.81;5091048;28;20044;-63
2022/04/04 09:14:08;;;;;;;10.55;2.90;;;;;;;29.08;9.42;98166.63;5083411;28;20053;-63
2022/04/04 09:16:36;;;;;;;4.45;2.45;;;;;;;29.12;8.17;98168.03;5090798;28;20039;-62
2022/04/04 09:19:03;;;;;;;4.20;2.70;;;;;;;30.13;8.89;98173.03;5091461;28;20070;-63
2022/04/04 09:21:33;;;;;;;4.70;2.45;;;;;;;31.18;8.40;98173.78;5091235;28;20449;-63
2022/04/04 09:24:07;;;;;;;20.77;9.25;;;;;;;32.10;8.23;98171.63;5090000;28;20146;-64
2022/04/04 09:26:40;;;;;;;6.35;2.50;;;;;;;32.80;7.53;98173.44;5091489;28;20071;-64
2022/04/04 09:29:12;;;;;;;8.65;2.55;;;;;;;32.99;7.69;98166.00;5094788;28;20131;-64
2022/04/04 09:32:05;;;;;;;4.80;1.70;;;;;;;31.69;7.84;98173.84;5094522;28;20473;-64
2022/04/04 09:34:53;;;;;;;2.70;1.73;;;;;;;31.00;8.37;98176.97;5095257;28;20384;-64
2022/04/04 09:37:22;;;;;;;4.55;2.60;;;;;;;30.08;8.62;98170.09;5094625;28;20050;-65
2022/04/04 09:40:08;;;;;;;2.88;1.50;;;;;;;28.44;9.25;98169.09;5094330;28;20574;-65
2022/04/04 09:43:01;;;;;;;3.53;1.50;;;;;;;26.72;10.00;98172.28;5094503;28;20384;-64
2022/04/04 09:45:30;;;;;;;4.03;1.85;;;;;;;22.32;11.94;98173.59;5094551;28;20048;-65
2022/04/04 09:48:04;;;;;;;2.60;1.77;;;;;;;19.44;13.63;98178.47;5094286;28;20040;-66
2022/04/04 09:50:42;;;;;;;5.93;2.00;;;;;;;17.53;15.23;98183.59;5094669;28;20052;-64
2022/04/04 09:53:15;;;;;;;8.30;1.73;;;;;;;15.40;16.68;98180.81;5094112;28;20091;-64
2022/04/04 09:55:52;;;;;;;7.68;1.50;;;;;;;14.12;18.02;98185.34;5094869;28;20078;-64
2022/04/04 09:58:25;;;;;;;3.03;1.45;;;;;;;13.48;18.80;98175.63;5094199;28;20109;-63
2022/04/04 10:00:54;;;;;;;4.78;1.85;;;;;;;12.99;19.10;98188.25;5094357;28;20502;-62
2022/04/04 10:03:23;;;;;;;6.10;1.98;;;;;;;12.52;19.59;98184.06;5093880;28;20048;-63
2022/04/04 10:06:00;;;;;;;5.50;2.22;;;;;;;12.23;20.58;98187.63;5094534;28;20143;-64
2022/04/04 10:08:28;;;;;;;3.40;1.92;;;;;;;11.53;20.42;98192.03;5093871;28;20507;-62
2022/04/04 10:10:55;;;;;;;3.13;1.70;;;;;;;11.15;20.79;98189.34;5094388;28;20052;-63
2022/04/04 10:13:23;;;;;;;4.53;2.20;;;;;;;10.77;21.90;98193.00;5093787;28;20067;-64
2022/04/04 10:15:52;;;;;;;8.27;2.00;;;;;;;10.30;21.79;98189.59;5095118;28;20463;-63
2022/04/04 10:18:20;;;;;;;2.20;1.50;;;;;;;10.00;23.10;98179.31;5093993;28;20040;-63
2022/04/04 10:20:55;;;;;;;2.65;1.60;;;;;;;9.72;23.36;98185.03;5094764;28;20138;-63
2022/04/04 10:23:24;;;;;;;3.30;2.05;;;;;;;9.52;23.78;98190.84;5094113;28;20056;-65
2022/04/04 10:25:52;;;;;;;4.25;1.70;;;;;;;9.27;24.75;98188.25;5094172;28;20051;-63
2022/04/04 10:28:39;;;;;;;2.67;1.38;;;;;;;9.13;24.62;98196.22;5093351;28;20043;-64
2022/04/04 10:31:14;;;;;;;4.43;2.42;;;;;;;8.82;25.33;98190.59;5093439;28;20568;-65
2022/04/04 10:33:42;;;;;;;3.45;1.60;;;;;;;8.54;25.50;98192.56;5089324;28;20503;-64
2022/04/04 10:36:12;;;;;;;5.55;2.38;;;;;;;8.19;25.68;98182.34;5093568;28;20415;-64
2022/04/04 10:38:48;;;;;;;3.90;2.25;;;;;;;8.14;25.67;98186.19;5090150;28;20048;-65
2022/04/04 10:41:20;;;;;;;5.93;2.90;;;;;;;8.11;25.96;98192.41;5093360;28;20047;-65
2022/04/04 10:43:50;;;;;;;4.15;1.80;;;;;;;7.98;26.32;98192.78;5093920;28;20093;-66
2022/04/04 10:46:19;;;;;;;2.38;1.35;;;;;;;7.86;26.53;98184.50;5093562;28;20060;-65
2022/04/04 10:48:51;;;;;;;4.35;1.55;;;;;;;7.84;26.68;98193.16;5089821;28;20086;-65
2022/04/04 10:51:28;;;;;;;2.42;1.48;;;;;;;7.75;26.98;98189.69;5089488;28;20067;-67
2022/04/04 10:54:10;;;;;;;3.13;1.40;;;;;;;7.48;27.44;98185.69;5110497;27;20717;-65
2022/04/04 10:56:41;;;;;;;;;;;;;;;7.28;27.40;98185.75;5090587;28;20525;-63
2022/04/04 10:59:23;;;;;;;2.85;1.40;;;;;;;7.20;27.27;98179.19;5089164;28;19932;-65
2022/04/04 11:01:53;;;;;;;2.63;1.63;;;;;;;7.12;27.47;98177.34;5088801;28;20048;-65
2022/04/04 11:04:24;;;;;;;2.97;1.40;;;;;;;6.89;28.25;98180.84;5081105;28;20048;-65
2022/04/04 11:09:53;;;;;;;2.20;1.40;;;;;;;6.26;28.98;98182.13;5086962;28;20097;-64
2022/04/04 11:12:23;;;;;;;7.53;3.53;;;;;;;6.21;28.86;98181.50;5080588;28;20144;-65
2022/04/04 11:15:07;;;;;;;6.03;3.10;;;;;;;6.33;28.99;98176.84;5088854;28;20056;-67
2022/04/04 11:17:55;;;;;;;2.95;1.30;;;;;;;6.41;28.87;98175.16;5087619;28;20415;-65
2022/04/04 11:20:31;;;;;;;3.08;1.33;;;;;;;6.39;28.63;98191.25;5089189;28;20044;-65
2022/04/04 11:23:03;;;;;;;2.28;1.35;;;;;;;6.38;27.86;98176.66;5088843;28;20048;-64
2022/04/04 11:25:37;;;;;;;4.70;1.45;;;;;;;6.38;28.98;98178.59;5086078;28;20052;-65
2022/04/04 11:28:05;;;;;;;5.15;1.25;;;;;;;6.40;28.92;98174.34;5088166;28;20055;-64
2022/04/04 11:30:33;;;;;;;2.08;1.20;;;;;;;6.36;29.05;98175.34;5088863;28;20052;-65
2022/04/04 11:33:00;;;;;;;2.25;1.10;;;;;;;6.28;29.07;98179.03;5088011;28;20045;-65
2022/04/04 11:35:31;;;;;;;2.70;1.33;;;;;;;6.25;29.15;98174.16;5086070;28;20060;-64
2022/04/04 11:38:06;;;;;;;2.30;1.30;;;;;;;6.19;29.64;98181.03;5087868;28;20076;-64
2022/04/04 11:40:38;;;;;;;2.30;1.23;;;;;;;6.22;30.00;98174.84;5085711;28;20059;-64
2022/04/04 11:43:07;;;;;;;2.72;1.40;;;;;;;6.06;29.01;98177.41;5086526;28;20135;-66
2022/04/04 11:45:36;;;;;;;2.33;1.33;;;;;;;6.03;29.69;98177.25;5088857;28;20056;-64
2022/04/04 11:48:06;;;;;;;1.92;0.98;;;;;;;6.04;28.68;98178.88;5087826;28;20044;-65
2022/04/04 11:50:35;;;;;;;2.38;1.33;;;;;;;6.08;29.14;98177.06;5085432;28;20557;-65
2022/04/04 11:53:08;;;;;;;2.47;1.42;;;;;;;6.17;29.93;98180.56;5087454;28;20109;-64